Strona główna
METAR-TAF:

METAR-TAF

Lotnisko :

Port lotniczy Święta Katarzyna

Świętej Katarzyny, Egipt

Szerokość geograficzna: 28-41-07N, Długość geograficzna: 034-03-45E, wysokość: 1331 m

Aktualna obserwacja pogody

Raport powstał 7 godziny i 2 minut temu, godzina 18:00 UTC
Wiatr 8 kt od południowy zachód
Temperatura 7°C
Wilgotność 61%
Ciśnienie 1020 hPa
Widzialność 10 km lub więcej
Brak chmur poniżej 1500 m i brak chmur cumulonimbus

METAR: HESC 151800Z 23008KT CAVOK 07/00 Q1020 NOSIG

czas: 03:02 (01:02 UTC)

Prognoza

Raport powstał 2 godziny i 2 minut temu, godzina 23:00 UTC
Prognoza ważna od 16 godzina 00 UTC do 17 godzina 06 UTC
Wiatr 10 kt od zachód
Widzialność 10 km lub więcej
Brak chmur poniżej 1500 m i brak chmur cumulonimbus

TAF: HESC 152300Z 1600/1706 27010KT CAVOK

Obserwacja i prognoza pogody dla ponad 4000 lotnisk (raport METAR i TAF).

Dostępne stacje oznaczono żółtymi i czerwonymi punktami na mapie.

Najedź kursorem aby zobaczyć nazwę stacji.

Kliknij aby zobaczyć obserwacje i prognozy pogody.

Aby zmienić mapę: kliknij na zielony przycisk z czarnym krzyżykiem, aby powiększyć; na zielony przycisk z myślnikiem, aby pomniejszyć; na zielone strzałki, aby przejść do map sąsiednich.


METAR-TAF: